createdAt,value
2023-10-06T00:02:30.057Z,18.03
2023-10-06T00:04:59.350Z,17.02
2023-10-06T00:07:27.761Z,18.52
2023-10-06T00:09:56.703Z,19.23
2023-10-06T00:12:27.632Z,16.55
2023-10-06T00:14:59.396Z,22.73
2023-10-06T00:17:29.711Z,14.70
2023-10-06T00:20:01.239Z,15.50
2023-10-06T00:22:30.457Z,18.77
2023-10-06T00:25:01.225Z,18.67
2023-10-06T00:27:32.282Z,18.53
2023-10-06T00:30:13.027Z,18.20
2023-10-06T00:32:43.534Z,17.77
2023-10-06T00:35:13.070Z,19.00
2023-10-06T00:37:42.696Z,27.33
2023-10-06T00:40:21.142Z,21.53
2023-10-06T00:42:54.562Z,19.47
2023-10-06T00:45:25.777Z,20.00
2023-10-06T00:47:55.361Z,19.70
2023-10-06T00:50:25.389Z,22.77
2023-10-06T00:52:57.139Z,16.70
2023-10-06T00:55:28.005Z,19.02
2023-10-06T00:57:56.273Z,24.43
2023-10-06T01:00:26.727Z,18.57
2023-10-06T01:02:54.942Z,19.83
2023-10-06T01:05:26.840Z,20.20
2023-10-06T01:07:55.909Z,20.17
2023-10-06T01:10:29.554Z,15.77
2023-10-06T01:12:58.602Z,19.20
2023-10-06T01:15:31.119Z,19.87
2023-10-06T01:18:00.660Z,16.80
2023-10-06T01:20:35.334Z,20.70
2023-10-06T01:23:11.820Z,17.40
2023-10-06T01:25:41.014Z,17.27
2023-10-06T01:28:13.892Z,16.40
2023-10-06T01:30:42.301Z,18.80
2023-10-06T01:33:09.947Z,14.80
2023-10-06T01:35:43.929Z,17.92
2023-10-06T01:38:23.546Z,23.15
2023-10-06T01:40:56.015Z,19.73
2023-10-06T01:43:31.403Z,16.57
2023-10-06T01:46:00.958Z,16.90
2023-10-06T01:48:31.582Z,17.80
2023-10-06T01:51:00.019Z,18.03
2023-10-06T01:53:34.594Z,18.43
2023-10-06T01:56:08.044Z,19.17
2023-10-06T01:58:38.835Z,18.27
2023-10-06T02:01:08.524Z,18.43
2023-10-06T02:03:41.785Z,19.50
2023-10-06T02:06:17.301Z,21.20
2023-10-06T02:08:50.888Z,18.80
2023-10-06T02:11:22.230Z,14.77
2023-10-06T02:13:50.443Z,17.67
2023-10-06T02:16:24.456Z,16.03
2023-10-06T02:18:55.260Z,20.20
2023-10-06T02:21:26.304Z,16.90
2023-10-06T02:24:00.994Z,14.50
2023-10-06T02:26:29.236Z,19.47
2023-10-06T02:28:57.949Z,17.13
2023-10-06T02:31:27.838Z,17.83
2023-10-06T02:33:56.596Z,14.77
2023-10-06T02:36:24.912Z,20.10
2023-10-06T02:38:55.215Z,16.93
2023-10-06T02:41:27.575Z,19.07
2023-10-06T02:43:56.857Z,18.63
2023-10-06T02:46:27.126Z,18.23
2023-10-06T02:48:55.704Z,15.63
2023-10-06T02:51:33.733Z,19.83
2023-10-06T02:54:22.613Z,20.17
2023-10-06T02:56:52.165Z,16.87
2023-10-06T02:59:25.163Z,15.17
2023-10-06T03:01:57.145Z,24.03
2023-10-06T03:04:27.999Z,13.73
2023-10-06T03:06:58.176Z,16.97
2023-10-06T03:09:38.358Z,14.30
2023-10-06T03:12:13.605Z,15.33
2023-10-06T03:14:41.906Z,29.47
2023-10-06T03:17:12.111Z,15.20
2023-10-06T03:19:42.203Z,19.10
2023-10-06T03:22:13.839Z,16.37
2023-10-06T03:24:54.714Z,18.87
2023-10-06T03:27:24.932Z,15.83
2023-10-06T03:29:56.325Z,18.23
2023-10-06T03:32:34.150Z,21.33
2023-10-06T03:35:13.215Z,14.53
2023-10-06T03:37:53.145Z,17.37
2023-10-06T03:40:26.685Z,21.80
2023-10-06T03:42:55.132Z,17.80
2023-10-06T03:45:30.447Z,15.53
2023-10-06T03:48:09.905Z,15.70
2023-10-06T03:50:44.128Z,19.53
2023-10-06T03:53:16.462Z,18.63
2023-10-06T03:55:47.784Z,19.73
2023-10-06T03:58:17.895Z,17.70
2023-10-06T04:00:50.947Z,26.10
2023-10-06T04:03:21.636Z,17.30
2023-10-06T04:05:51.441Z,18.67
2023-10-06T04:08:22.685Z,16.73
2023-10-06T04:10:56.222Z,18.03
2023-10-06T04:13:24.679Z,17.67
2023-10-06T04:15:53.987Z,18.13
2023-10-06T04:18:25.013Z,18.03
2023-10-06T04:20:54.948Z,17.57
2023-10-06T04:23:25.227Z,23.07
2023-10-06T04:25:58.093Z,14.70
2023-10-06T04:28:29.720Z,17.70
2023-10-06T04:31:02.484Z,17.30
2023-10-06T04:33:31.215Z,15.27
2023-10-06T04:36:02.389Z,13.90
2023-10-06T04:38:30.981Z,14.07
2023-10-06T04:41:01.153Z,15.87
2023-10-06T04:43:29.451Z,15.33
2023-10-06T04:45:57.914Z,23.03
2023-10-06T04:48:26.219Z,16.63
2023-10-06T04:50:57.176Z,24.70
2023-10-06T04:53:25.509Z,18.90
2023-10-06T04:55:53.927Z,17.87
2023-10-06T04:58:24.357Z,18.60
2023-10-06T05:00:55.144Z,23.60
2023-10-06T05:03:26.103Z,21.60
2023-10-06T05:05:57.128Z,16.73
2023-10-06T05:08:26.139Z,18.53
2023-10-06T05:10:57.247Z,22.40
2023-10-06T05:13:28.063Z,18.07
2023-10-06T05:15:56.582Z,21.30
2023-10-06T05:18:25.768Z,28.43
2023-10-06T05:20:54.626Z,18.87
2023-10-06T05:23:23.342Z,22.57
2023-10-06T05:25:51.705Z,20.50
2023-10-06T05:28:22.040Z,22.63
2023-10-06T05:30:52.149Z,17.40
2023-10-06T05:33:20.855Z,13.27
2023-10-06T05:35:49.669Z,17.03
2023-10-06T05:38:18.236Z,20.80
2023-10-06T05:40:48.089Z,22.90
2023-10-06T05:43:18.388Z,24.55
2023-10-06T05:45:53.758Z,22.73
2023-10-06T05:48:23.968Z,19.52
2023-10-06T05:50:53.859Z,22.42
2023-10-06T05:53:24.483Z,32.93
2023-10-06T05:55:53.803Z,18.90
2023-10-06T05:58:24.868Z,17.67
2023-10-06T06:00:54.015Z,16.02
2023-10-06T06:03:25.220Z,20.83
2023-10-06T06:05:54.729Z,20.50
2023-10-06T06:08:23.422Z,19.35
2023-10-06T06:10:51.987Z,22.83
2023-10-06T06:13:22.924Z,19.25
2023-10-06T06:15:51.847Z,24.40
2023-10-06T06:18:20.115Z,22.83
2023-10-06T06:20:49.859Z,22.00
2023-10-06T06:23:18.462Z,18.05
2023-10-06T06:25:47.092Z,20.30
2023-10-06T06:28:17.861Z,26.20
2023-10-06T06:30:48.605Z,14.25
2023-10-06T06:33:20.379Z,26.80
2023-10-06T06:35:50.425Z,22.48
2023-10-06T06:38:20.128Z,19.20
2023-10-06T06:40:49.373Z,25.92
2023-10-06T06:43:21.445Z,21.35
2023-10-06T06:45:50.034Z,22.33
2023-10-06T06:48:21.125Z,17.25
2023-10-06T06:50:50.899Z,20.60
2023-10-06T06:53:20.115Z,22.35
2023-10-06T06:55:48.671Z,18.65
2023-10-06T06:58:18.173Z,20.63
2023-10-06T07:00:49.419Z,15.90
2023-10-06T07:03:18.155Z,21.58
2023-10-06T07:05:46.546Z,14.38
2023-10-06T07:08:16.783Z,17.08
2023-10-06T07:10:48.502Z,28.15
2023-10-06T07:13:17.255Z,15.68
2023-10-06T07:15:46.284Z,23.35
2023-10-06T07:18:16.079Z,19.05
2023-10-06T07:20:45.600Z,14.85
2023-10-06T07:23:15.341Z,20.52
2023-10-06T07:25:44.425Z,18.85
2023-10-06T07:28:13.641Z,16.42
2023-10-06T07:30:42.203Z,20.33
2023-10-06T07:33:10.910Z,16.33
2023-10-06T07:35:45.139Z,18.25
2023-10-06T07:38:15.258Z,25.00
2023-10-06T07:40:45.280Z,12.55
2023-10-06T07:43:14.627Z,16.00
2023-10-06T07:45:43.099Z,15.48
2023-10-06T07:48:11.828Z,16.02
2023-10-06T07:50:40.024Z,17.00
2023-10-06T07:53:08.757Z,12.63
2023-10-06T07:55:38.315Z,15.52
2023-10-06T07:58:09.623Z,15.20
2023-10-06T08:00:43.410Z,18.13
2023-10-06T08:03:12.336Z,11.63
2023-10-06T08:05:41.881Z,13.45
2023-10-06T08:08:10.838Z,15.18
2023-10-06T08:10:39.423Z,17.35
2023-10-06T08:13:09.328Z,19.52
2023-10-06T08:15:41.938Z,16.50
2023-10-06T08:18:10.347Z,16.38
2023-10-06T08:20:41.498Z,14.55
2023-10-06T08:23:09.963Z,14.32
2023-10-06T08:25:56.882Z,13.48
2023-10-06T08:28:28.392Z,15.35
2023-10-06T08:30:56.728Z,13.88
2023-10-06T08:33:28.922Z,13.80
2023-10-06T08:36:02.568Z,13.40
2023-10-06T08:38:31.889Z,17.55
2023-10-06T08:41:04.528Z,20.55
2023-10-06T08:43:40.162Z,18.02
2023-10-06T08:46:09.878Z,12.50
2023-10-06T08:48:39.918Z,16.35
2023-10-06T08:51:12.407Z,14.57
2023-10-06T08:53:43.338Z,13.35
2023-10-06T08:56:16.720Z,17.33
2023-10-06T08:58:47.266Z,18.08
2023-10-06T09:01:16.288Z,17.67
2023-10-06T09:03:44.761Z,18.50
2023-10-06T09:06:14.425Z,18.35
2023-10-06T09:08:44.021Z,17.60
2023-10-06T09:11:13.273Z,14.43
2023-10-06T09:13:43.451Z,17.00
2023-10-06T09:16:13.654Z,13.65
2023-10-06T09:18:42.703Z,18.38
2023-10-06T09:21:17.377Z,18.15
2023-10-06T09:23:46.260Z,13.95
2023-10-06T09:26:17.312Z,17.38
2023-10-06T09:28:53.445Z,15.15
2023-10-06T09:31:37.137Z,14.75
2023-10-06T09:34:09.448Z,19.75
2023-10-06T09:36:44.126Z,18.90
2023-10-06T09:39:18.971Z,16.08
2023-10-06T09:41:49.384Z,17.73
2023-10-06T09:44:21.076Z,16.17
2023-10-06T09:46:54.762Z,17.95
2023-10-06T09:49:24.320Z,22.98
2023-10-06T09:51:54.179Z,15.45
2023-10-06T09:54:22.997Z,13.77
2023-10-06T09:56:56.784Z,12.50
2023-10-06T09:59:27.773Z,16.10
2023-10-06T10:02:00.381Z,17.85
2023-10-06T10:04:33.037Z,13.77
2023-10-06T10:07:05.410Z,16.08
2023-10-06T10:12:39.118Z,18.35
2023-10-06T10:15:23.256Z,12.52
2023-10-06T10:18:02.534Z,11.35
2023-10-06T10:20:31.266Z,19.67
2023-10-06T10:23:04.424Z,15.30
2023-10-06T10:25:32.783Z,16.52
2023-10-06T10:28:15.419Z,11.32
2023-10-06T10:30:54.995Z,17.38
2023-10-06T10:33:25.757Z,15.38
2023-10-06T10:36:22.139Z,12.10
2023-10-06T10:39:02.659Z,14.68
2023-10-06T10:41:36.854Z,18.65
2023-10-06T10:44:24.879Z,13.63
2023-10-06T10:46:55.626Z,16.58
2023-10-06T10:49:25.593Z,15.30
2023-10-06T10:51:58.689Z,20.17
2023-10-06T10:54:29.751Z,13.05
2023-10-06T10:57:03.655Z,14.30
2023-10-06T11:00:13.488Z,18.27
2023-10-06T11:02:43.717Z,17.42
2023-10-06T11:05:13.672Z,16.50
2023-10-06T11:07:43.562Z,14.73
2023-10-06T11:10:15.308Z,14.90
2023-10-06T11:12:43.673Z,15.73
2023-10-06T11:15:17.737Z,17.70
2023-10-06T11:17:46.998Z,15.30
2023-10-06T11:20:23.340Z,21.52
2023-10-06T11:22:56.859Z,18.70
2023-10-06T11:25:28.899Z,15.52
2023-10-06T11:27:58.215Z,16.35
2023-10-06T11:30:30.445Z,13.23
2023-10-06T11:32:59.352Z,11.70
2023-10-06T11:35:29.292Z,18.67
2023-10-06T11:37:57.916Z,16.90
2023-10-06T11:40:26.902Z,10.52
2023-10-06T11:42:55.795Z,11.70
2023-10-06T11:45:25.590Z,17.23
2023-10-06T11:47:54.855Z,20.48
2023-10-06T11:50:25.990Z,12.65
2023-10-06T11:52:56.669Z,15.20
2023-10-06T11:55:26.316Z,14.57
2023-10-06T11:57:55.564Z,11.35
2023-10-06T12:00:40.072Z,14.43
2023-10-06T12:03:11.686Z,12.23
2023-10-06T12:05:42.905Z,15.60
2023-10-06T12:08:13.826Z,11.27
2023-10-06T12:10:49.987Z,10.88
2023-10-06T12:13:18.658Z,15.45
2023-10-06T12:15:47.472Z,14.77
2023-10-06T12:18:16.571Z,12.93
2023-10-06T12:20:45.068Z,12.15
2023-10-06T12:23:14.793Z,10.93
2023-10-06T12:25:43.004Z,9.50
2023-10-06T12:28:15.265Z,13.63
2023-10-06T12:30:43.731Z,11.15
2023-10-06T12:33:12.875Z,19.63
2023-10-06T12:35:41.312Z,17.27
2023-10-06T12:38:09.962Z,12.88
2023-10-06T12:40:40.404Z,9.90
2023-10-06T12:43:09.408Z,13.32
2023-10-06T12:45:38.092Z,12.60
2023-10-06T12:48:09.407Z,12.85
2023-10-06T12:50:42.398Z,11.32
2023-10-06T12:53:12.699Z,11.80
2023-10-06T12:55:44.423Z,10.23
2023-10-06T12:58:16.333Z,11.73
2023-10-06T13:00:45.642Z,12.15
2023-10-06T13:03:18.169Z,13.48
2023-10-06T13:05:48.040Z,10.68
2023-10-06T13:08:18.700Z,13.02
2023-10-06T13:10:49.112Z,15.02
2023-10-06T13:13:18.578Z,20.45
2023-10-06T13:15:47.932Z,15.32
2023-10-06T13:18:18.781Z,27.90
2023-10-06T13:20:47.954Z,11.13
2023-10-06T13:23:16.726Z,14.93
2023-10-06T13:25:47.334Z,16.90
2023-10-06T13:28:21.901Z,10.52
2023-10-06T13:30:52.998Z,11.02
2023-10-06T13:33:21.889Z,18.02
2023-10-06T13:35:50.375Z,17.38
2023-10-06T13:38:18.904Z,13.52
2023-10-06T13:40:47.741Z,13.35
2023-10-06T13:43:18.904Z,15.13
2023-10-06T13:45:47.317Z,14.60
2023-10-06T13:48:17.543Z,14.85
2023-10-06T13:50:47.210Z,10.70
2023-10-06T13:53:16.571Z,17.58
2023-10-06T13:55:46.151Z,10.57
2023-10-06T13:58:14.898Z,16.17
2023-10-06T14:00:44.589Z,19.88
2023-10-06T14:03:15.253Z,15.80
2023-10-06T14:05:45.522Z,13.77
2023-10-06T14:08:16.059Z,15.00
2023-10-06T14:10:44.320Z,19.25
2023-10-06T14:13:18.063Z,22.60
2023-10-06T14:15:55.924Z,16.73
2023-10-06T14:18:26.633Z,15.90
2023-10-06T14:20:59.030Z,19.77
2023-10-06T14:23:31.529Z,23.63
2023-10-06T14:26:02.397Z,15.75
2023-10-06T14:28:30.909Z,19.67
2023-10-06T14:31:10.414Z,22.10
2023-10-06T14:33:45.745Z,17.30
2023-10-06T14:36:25.948Z,21.45
2023-10-06T14:39:11.590Z,24.58
2023-10-06T14:41:57.413Z,21.20
2023-10-06T14:44:39.596Z,20.58
2023-10-06T14:47:11.595Z,29.52
2023-10-06T14:52:33.692Z,27.02
2023-10-06T14:55:01.939Z,18.77
2023-10-06T14:57:30.127Z,18.92
2023-10-06T14:59:58.998Z,13.30
2023-10-06T15:02:28.705Z,16.00
2023-10-06T15:04:57.165Z,12.15
2023-10-06T15:07:25.366Z,10.82
2023-10-06T15:09:53.636Z,14.20
2023-10-06T15:12:26.683Z,11.32
2023-10-06T15:14:55.442Z,10.13
2023-10-06T15:17:24.148Z,19.23
2023-10-06T15:19:54.299Z,19.35
2023-10-06T15:22:23.662Z,11.90
2023-10-06T15:24:52.061Z,13.07
2023-10-06T15:27:20.424Z,13.88
2023-10-06T15:29:52.312Z,12.85
2023-10-06T15:32:20.744Z,14.23
2023-10-06T15:34:49.064Z,11.57
2023-10-06T15:37:19.096Z,8.63
2023-10-06T15:39:47.680Z,11.55
2023-10-06T15:42:15.875Z,15.18
2023-10-06T15:44:44.118Z,11.80
2023-10-06T15:47:13.501Z,9.48
2023-10-06T15:49:45.070Z,9.73
2023-10-06T15:52:13.327Z,14.85
2023-10-06T15:54:42.860Z,9.32
2023-10-06T15:57:11.143Z,11.20
2023-10-06T15:59:40.286Z,9.02
2023-10-06T16:02:11.176Z,12.27
2023-10-06T16:04:40.586Z,11.43
2023-10-06T16:07:09.879Z,9.48
2023-10-06T16:09:38.014Z,13.82
2023-10-06T16:12:11.261Z,14.68
2023-10-06T16:14:39.723Z,12.77
2023-10-06T16:17:08.038Z,9.98
2023-10-06T16:19:37.833Z,11.32
2023-10-06T16:22:09.070Z,14.63
2023-10-06T16:24:37.617Z,13.02
2023-10-06T16:27:07.227Z,10.63
2023-10-06T16:29:35.723Z,6.90
2023-10-06T16:32:04.193Z,14.50
2023-10-06T16:34:32.607Z,12.05
2023-10-06T16:37:00.942Z,11.93
2023-10-06T16:39:29.211Z,8.70
2023-10-06T16:41:57.474Z,8.23
2023-10-06T16:44:27.113Z,9.32
2023-10-06T16:46:56.526Z,18.88
2023-10-06T16:49:25.354Z,12.73
2023-10-06T16:51:53.789Z,12.05
2023-10-06T16:54:22.765Z,9.45
2023-10-06T16:56:51.094Z,9.45
2023-10-06T16:59:19.858Z,13.13
2023-10-06T17:01:50.743Z,8.27
2023-10-06T17:04:19.698Z,11.48
2023-10-06T17:06:48.085Z,9.77
2023-10-06T17:09:20.219Z,11.80
2023-10-06T17:11:49.892Z,13.45
2023-10-06T17:14:18.481Z,16.60
2023-10-06T17:16:46.838Z,23.90
2023-10-06T17:19:17.577Z,17.90
2023-10-06T17:21:45.861Z,15.52
2023-10-06T17:24:14.497Z,15.88
2023-10-06T17:26:43.967Z,17.40
2023-10-06T17:29:13.178Z,21.00
2023-10-06T17:31:41.815Z,18.95
2023-10-06T17:34:10.099Z,22.73
2023-10-06T17:36:40.629Z,18.23
2023-10-06T17:39:09.111Z,17.77
2023-10-06T17:41:37.617Z,20.30
2023-10-06T17:44:06.813Z,17.42
2023-10-06T17:46:35.103Z,17.80
2023-10-06T17:49:03.558Z,17.05
2023-10-06T17:51:31.866Z,17.85
2023-10-06T17:54:01.420Z,16.17
2023-10-06T17:56:30.065Z,22.42
2023-10-06T17:58:58.871Z,16.80
2023-10-06T18:01:27.612Z,18.02
2023-10-06T18:03:56.051Z,17.95
2023-10-06T18:06:24.431Z,19.38
2023-10-06T18:08:53.242Z,22.92
2023-10-06T18:11:24.755Z,21.55
2023-10-06T18:13:55.514Z,21.85
2023-10-06T18:16:26.390Z,20.48
2023-10-06T18:18:54.889Z,18.52
2023-10-06T18:21:23.415Z,21.25
2023-10-06T18:23:54.946Z,21.33
2023-10-06T18:26:25.339Z,23.88
2023-10-06T18:28:58.028Z,19.45
2023-10-06T18:31:26.996Z,21.20
2023-10-06T18:33:55.358Z,19.67
2023-10-06T18:36:23.656Z,19.25
2023-10-06T18:38:57.349Z,21.98
2023-10-06T18:41:27.666Z,20.15
2023-10-06T18:43:55.992Z,22.65
2023-10-06T18:46:24.957Z,17.13
2023-10-06T18:48:53.650Z,20.17
2023-10-06T18:51:21.953Z,21.60
2023-10-06T18:53:50.132Z,21.13
2023-10-06T18:56:18.308Z,21.90
2023-10-06T18:58:49.745Z,22.50
2023-10-06T19:01:19.698Z,20.60
2023-10-06T19:03:47.901Z,18.50
2023-10-06T19:06:18.795Z,18.05
2023-10-06T19:08:51.396Z,15.82
2023-10-06T19:11:21.012Z,17.95
2023-10-06T19:13:50.983Z,16.88
2023-10-06T19:16:21.287Z,17.83
2023-10-06T19:18:51.738Z,14.65
2023-10-06T19:21:22.167Z,14.73
2023-10-06T19:23:51.598Z,18.77
2023-10-06T19:26:21.093Z,13.90
2023-10-06T19:28:51.068Z,15.10
2023-10-06T19:31:19.888Z,15.13
2023-10-06T19:33:52.079Z,14.65
2023-10-06T19:36:21.686Z,12.80
2023-10-06T19:38:51.985Z,19.40
2023-10-06T19:41:20.545Z,12.05
2023-10-06T19:43:50.302Z,11.50
2023-10-06T19:46:19.460Z,20.33
2023-10-06T19:48:50.132Z,10.07
2023-10-06T19:51:19.467Z,11.45
2023-10-06T19:53:48.128Z,11.32
2023-10-06T19:56:16.459Z,14.10
2023-10-06T19:58:45.870Z,18.20
2023-10-06T20:01:20.737Z,10.45
2023-10-06T20:03:50.450Z,9.52
2023-10-06T20:06:18.739Z,9.77
2023-10-06T20:08:48.034Z,11.00
2023-10-06T20:11:18.632Z,8.88
2023-10-06T20:13:46.940Z,7.72
2023-10-06T20:16:17.721Z,10.45
2023-10-06T20:18:46.627Z,8.32
2023-10-06T20:21:18.535Z,8.23
2023-10-06T20:23:51.301Z,8.65
2023-10-06T20:26:19.512Z,6.60
2023-10-06T20:28:47.813Z,7.07
2023-10-06T20:31:17.658Z,11.63
2023-10-06T20:33:46.762Z,5.68
2023-10-06T20:36:15.899Z,6.25
2023-10-06T20:38:44.222Z,6.28
2023-10-06T20:41:13.402Z,8.70
2023-10-06T20:43:41.709Z,10.02
2023-10-06T20:46:10.202Z,12.27
2023-10-06T20:48:41.008Z,8.25
2023-10-06T20:51:15.836Z,8.13
2023-10-06T20:53:44.358Z,4.95
2023-10-06T20:56:13.033Z,5.30
2023-10-06T20:58:41.918Z,6.85
2023-10-06T21:01:10.997Z,9.63
2023-10-06T21:03:40.710Z,6.40
2023-10-06T21:06:09.108Z,8.57
2023-10-06T21:08:40.577Z,7.10
2023-10-06T21:11:08.829Z,7.63
2023-10-06T21:13:37.797Z,9.50
2023-10-06T21:16:06.531Z,5.18
2023-10-06T21:18:34.781Z,11.45
2023-10-06T21:21:05.754Z,6.82
2023-10-06T21:23:34.112Z,5.65
2023-10-06T21:26:02.443Z,6.95
2023-10-06T21:28:30.611Z,7.00
2023-10-06T21:30:58.879Z,5.85
2023-10-06T21:33:27.156Z,5.75
2023-10-06T21:35:55.360Z,6.30
2023-10-06T21:38:25.066Z,7.95
2023-10-06T21:41:01.538Z,10.85
2023-10-06T21:43:29.843Z,11.30
2023-10-06T21:45:58.167Z,8.98
2023-10-06T21:48:26.539Z,9.27
2023-10-06T21:50:55.942Z,11.15
2023-10-06T21:53:25.625Z,9.40
2023-10-06T21:55:54.160Z,10.05
2023-10-06T21:58:22.499Z,10.35
2023-10-06T22:00:57.156Z,9.40
2023-10-06T22:03:25.837Z,9.55
2023-10-06T22:05:55.647Z,9.50
2023-10-06T22:08:25.677Z,13.02
2023-10-06T22:10:57.343Z,8.20
2023-10-06T22:13:25.875Z,9.05
2023-10-06T22:15:54.124Z,8.45
2023-10-06T22:18:22.911Z,7.28
2023-10-06T22:20:51.197Z,10.55
2023-10-06T22:23:20.526Z,7.60
2023-10-06T22:25:52.415Z,11.45
2023-10-06T22:28:21.556Z,9.38
2023-10-06T22:30:50.333Z,10.20
2023-10-06T22:33:18.966Z,8.95
2023-10-06T22:35:47.109Z,6.47
2023-10-06T22:38:16.075Z,7.00
2023-10-06T22:40:44.349Z,5.90
2023-10-06T22:43:13.897Z,8.25
2023-10-06T22:45:42.107Z,10.98
2023-10-06T22:48:10.671Z,8.68
2023-10-06T22:50:39.260Z,10.93
2023-10-06T22:53:08.556Z,6.30
2023-10-06T22:55:37.652Z,8.50
2023-10-06T22:58:06.968Z,9.80
2023-10-06T23:00:37.709Z,10.55
2023-10-06T23:03:06.621Z,11.00
2023-10-06T23:05:35.265Z,9.27
2023-10-06T23:08:03.437Z,11.55
2023-10-06T23:10:32.138Z,10.73
2023-10-06T23:13:01.733Z,9.48
2023-10-06T23:15:33.169Z,15.43
2023-10-06T23:18:03.021Z,12.02
2023-10-06T23:20:32.335Z,9.20
2023-10-06T23:23:00.912Z,9.00
2023-10-06T23:25:37.960Z,12.77
2023-10-06T23:28:08.301Z,9.63
2023-10-06T23:30:38.216Z,11.32
2023-10-06T23:33:08.493Z,12.27
2023-10-06T23:35:36.719Z,10.00
2023-10-06T23:38:08.191Z,12.75
2023-10-06T23:40:39.743Z,12.20
2023-10-06T23:43:09.916Z,13.75
2023-10-06T23:45:39.217Z,9.25
2023-10-06T23:48:12.707Z,11.93
2023-10-06T23:50:52.641Z,10.25
2023-10-06T23:53:24.278Z,12.07
2023-10-06T23:55:53.966Z,12.25
2023-10-06T23:58:23.632Z,10.25
